Time;durP1;ratioP1;P1;durP2;ratioP2;P2;SDS_P1;SDS_P2;PMS_P1;PMS_P2;Temp;Humidity;BMP_temperature;BMP_pressure;BME280_temperature;BME280_humidity;BME280_pressure;Samples;Min_cycle;Max_cycle;Signal;HPM_P1;HPM_P2
2023/12/10 00:01:52;;;;;;;107.25;50.80;;;3.80;99.90;;;;;;4961711;28;20038;-84
2023/12/10 00:04:19;;;;;;;97.55;50.58;;;3.80;99.90;;;;;;4958119;28;20057;-84
2023/12/10 00:06:45;;;;;;;101.95;48.67;;;3.70;99.90;;;;;;4942227;28;20035;-83
2023/12/10 00:09:12;;;;;;;98.63;50.08;;;3.80;99.90;;;;;;4965534;28;20031;-83
2023/12/10 00:11:39;;;;;;;100.38;51.15;;;3.80;99.90;;;;;;4956978;28;20022;-82
2023/12/10 00:14:08;;;;;;;101.97;50.15;;;3.80;99.90;;;;;;4950256;28;20108;-83
2023/12/10 00:16:35;;;;;;;93.68;48.13;;;3.80;99.90;;;;;;4977122;28;20042;-83
2023/12/10 00:19:01;;;;;;;90.60;47.53;;;3.70;99.90;;;;;;4960636;28;20361;-83
2023/12/10 00:21:28;;;;;;;85.22;44.70;;;3.60;99.90;;;;;;4957917;28;20027;-83
2023/12/10 00:23:54;;;;;;;93.25;46.65;;;3.60;99.90;;;;;;4960478;28;20030;-83
2023/12/10 00:26:21;;;;;;;92.70;45.15;;;3.60;99.90;;;;;;4961057;28;20061;-83
2023/12/10 00:28:47;;;;;;;97.38;47.25;;;3.50;99.90;;;;;;4958586;28;20118;-84
2023/12/10 00:31:14;;;;;;;90.15;46.15;;;3.50;99.90;;;;;;4957810;28;20023;-84
2023/12/10 00:33:40;;;;;;;88.78;43.53;;;3.60;99.90;;;;;;4960956;28;20056;-83
2023/12/10 00:36:07;;;;;;;84.70;41.92;;;3.50;99.90;;;;;;4960990;28;20080;-83
2023/12/10 00:38:33;;;;;;;86.63;43.53;;;3.50;99.90;;;;;;4960565;28;20069;-82
2023/12/10 00:41:00;;;;;;;82.15;43.88;;;3.40;99.90;;;;;;4994072;28;20076;-82
2023/12/10 00:43:27;;;;;;;86.03;42.17;;;3.40;99.90;;;;;;4993899;28;20023;-82
2023/12/10 00:45:53;;;;;;;84.72;42.60;;;3.30;99.90;;;;;;4976684;28;20026;-83
2023/12/10 00:48:19;;;;;;;79.72;40.20;;;3.30;99.90;;;;;;4976626;28;20053;-82
2023/12/10 00:50:46;;;;;;;77.93;39.22;;;3.30;99.90;;;;;;4976480;28;20112;-82
2023/12/10 00:53:14;;;;;;;78.25;39.10;;;3.30;99.90;;;;;;4956001;28;20038;-80
2023/12/10 00:55:41;;;;;;;85.07;38.97;;;3.30;99.90;;;;;;4956002;28;20039;-81
2023/12/10 00:58:07;;;;;;;71.05;38.95;;;3.20;99.90;;;;;;4972191;28;20042;-82
2023/12/10 01:00:33;;;;;;;80.40;39.20;;;3.20;99.90;;;;;;4941563;28;20027;-82
2023/12/10 01:03:00;;;;;;;74.97;39.00;;;3.20;99.90;;;;;;4956189;28;20139;-82
2023/12/10 01:05:28;;;;;;;71.88;35.92;;;3.10;99.90;;;;;;4948498;28;20506;-83
2023/12/10 01:07:54;;;;;;;77.05;37.20;;;3.00;99.90;;;;;;4956155;28;20105;-82
2023/12/10 01:10:21;;;;;;;68.50;36.30;;;2.90;99.90;;;;;;4959459;28;20496;-82
2023/12/10 01:12:47;;;;;;;65.55;34.00;;;2.80;99.90;;;;;;4956019;28;20057;-82
2023/12/10 01:15:13;;;;;;;69.53;36.60;;;2.90;99.90;;;;;;4965133;28;20114;-82
2023/12/10 01:17:40;;;;;;;78.38;38.10;;;2.80;99.90;;;;;;4972123;28;20043;-82
2023/12/10 01:20:07;;;;;;;79.35;39.13;;;2.80;99.90;;;;;;4956030;28;20496;-82
2023/12/10 01:22:33;;;;;;;68.32;37.58;;;2.80;99.90;;;;;;4955978;28;20066;-82
2023/12/10 01:25:01;;;;;;;75.93;39.63;;;2.70;99.90;;;;;;4965938;28;20034;-82
2023/12/10 01:27:27;;;;;;;72.90;37.40;;;2.70;99.90;;;;;;4981676;28;20030;-81
2023/12/10 01:29:54;;;;;;;77.57;39.28;;;2.60;99.90;;;;;;4975612;28;20113;-82
2023/12/10 01:32:20;;;;;;;77.40;39.75;;;2.60;99.90;;;;;;4963426;28;20026;-82
2023/12/10 01:34:49;;;;;;;77.60;40.67;;;2.60;99.90;;;;;;4983989;28;20022;-82
2023/12/10 01:37:21;;;;;;;75.32;39.10;;;2.60;99.90;;;;;;4990966;28;20050;-82
2023/12/10 01:39:48;;;;;;;84.93;40.70;;;2.60;99.90;;;;;;4956673;28;20029;-82
2023/12/10 01:42:17;;;;;;;75.75;39.97;;;2.60;99.90;;;;;;4975227;28;20038;-82
2023/12/10 01:44:49;;;;;;;84.43;41.53;;;2.60;99.90;;;;;;4970853;28;20487;-82
2023/12/10 01:47:18;;;;;;;78.88;41.50;;;2.60;99.90;;;;;;4963695;28;20041;-81
2023/12/10 01:49:47;;;;;;;89.75;45.85;;;2.60;99.90;;;;;;4959995;28;20031;-82
2023/12/10 01:52:13;;;;;;;87.10;41.10;;;2.50;99.90;;;;;;4960441;28;20058;-81
2023/12/10 01:54:40;;;;;;;92.28;45.30;;;2.50;99.90;;;;;;4966301;28;20476;-82
2023/12/10 01:57:07;;;;;;;87.82;43.63;;;2.50;99.90;;;;;;4960315;28;20129;-81
2023/12/10 01:59:36;;;;;;;93.82;44.78;;;2.40;99.90;;;;;;4952925;28;20403;-82
2023/12/10 02:02:04;;;;;;;85.00;43.75;;;2.40;99.90;;;;;;4963490;28;20117;-82
2023/12/10 02:04:30;;;;;;;85.75;42.20;;;2.50;99.90;;;;;;4967325;28;20027;-81
2023/12/10 02:06:56;;;;;;;90.15;43.60;;;2.50;99.90;;;;;;4973480;28;20023;-82
2023/12/10 02:09:24;;;;;;;97.35;44.95;;;2.50;99.90;;;;;;4980229;28;20030;-82
2023/12/10 02:11:53;;;;;;;89.13;44.78;;;2.50;99.90;;;;;;4979504;28;20038;-82
2023/12/10 02:14:20;;;;;;;90.57;44.38;;;2.50;99.90;;;;;;4959836;28;20512;-82
2023/12/10 02:16:46;;;;;;;85.60;44.35;;;2.60;99.90;;;;;;4944028;28;20050;-82
2023/12/10 02:19:13;;;;;;;93.53;43.50;;;2.50;99.90;;;;;;4944281;28;20018;-81
2023/12/10 02:21:45;;;;;;;88.93;42.20;;;2.50;99.90;;;;;;4979180;28;20424;-82
2023/12/10 02:24:18;;;;;;;89.82;41.33;;;2.50;99.90;;;;;;4969840;28;20028;-82
2023/12/10 02:26:45;;;;;;;85.75;39.33;;;2.50;99.90;;;;;;4975900;28;20023;-81
2023/12/10 02:29:11;;;;;;;83.90;42.00;;;2.50;99.90;;;;;;4975860;28;20027;-82
2023/12/10 02:31:38;;;;;;;79.05;38.83;;;2.50;99.90;;;;;;4979048;28;20050;-82
2023/12/10 02:34:04;;;;;;;79.20;39.38;;;2.50;99.90;;;;;;4996255;28;20022;-82
2023/12/10 02:36:30;;;;;;;75.90;37.83;;;2.40;99.90;;;;;;4996137;28;20030;-82
2023/12/10 02:38:56;;;;;;;86.60;40.75;;;2.40;99.90;;;;;;4996223;28;20113;-81
2023/12/10 02:41:23;;;;;;;82.97;40.22;;;2.30;99.90;;;;;;4996330;28;20026;-81
2023/12/10 02:43:49;;;;;;;69.90;38.55;;;2.30;99.90;;;;;;4978552;28;20108;-81
2023/12/10 02:46:16;;;;;;;88.25;40.95;;;2.30;99.90;;;;;;4962214;28;20050;-82
2023/12/10 02:48:42;;;;;;;82.47;41.95;;;2.20;99.90;;;;;;4962600;28;20225;-82
2023/12/10 02:51:09;;;;;;;87.97;40.83;;;2.30;99.90;;;;;;4962739;28;20121;-82
2023/12/10 02:53:35;;;;;;;79.65;39.03;;;2.20;99.90;;;;;;4962651;28;20484;-82
2023/12/10 02:56:01;;;;;;;77.50;38.38;;;2.20;99.90;;;;;;4978478;28;20022;-81
2023/12/10 02:58:28;;;;;;;82.30;41.08;;;2.30;99.90;;;;;;4962211;28;20104;-82
2023/12/10 03:00:55;;;;;;;84.82;39.17;;;2.30;99.90;;;;;;4974594;28;20023;-82
2023/12/10 03:03:21;;;;;;;81.25;40.80;;;2.20;99.90;;;;;;4960815;28;20074;-81
2023/12/10 03:05:47;;;;;;;78.95;38.65;;;2.20;99.90;;;;;;4975466;28;20498;-81
2023/12/10 03:08:14;;;;;;;79.13;37.40;;;2.20;99.90;;;;;;4973003;28;20023;-81
2023/12/10 03:10:40;;;;;;;69.43;35.75;;;2.20;99.90;;;;;;4973063;28;20037;-82
2023/12/10 03:13:06;;;;;;;75.13;36.35;;;2.30;99.90;;;;;;4978776;28;20097;-81
2023/12/10 03:15:33;;;;;;;69.72;36.13;;;2.20;99.90;;;;;;4978238;28;20061;-82
2023/12/10 03:17:59;;;;;;;67.07;34.45;;;2.20;99.90;;;;;;4962120;28;20069;-81
2023/12/10 03:20:26;;;;;;;64.40;33.50;;;2.20;99.90;;;;;;4972287;28;20496;-81
2023/12/10 03:22:52;;;;;;;62.88;32.85;;;2.20;99.90;;;;;;4978173;28;20022;-81
2023/12/10 03:25:22;;;;;;;62.95;33.30;;;2.20;99.90;;;;;;4975974;28;20034;-81
2023/12/10 03:27:48;;;;;;;66.65;33.42;;;2.20;99.90;;;;;;4978180;28;20026;-81
2023/12/10 03:30:15;;;;;;;58.25;32.83;;;2.20;99.90;;;;;;4995292;28;20118;-82
2023/12/10 03:32:41;;;;;;;63.58;32.72;;;2.10;99.90;;;;;;4977785;28;20093;-81
2023/12/10 03:35:08;;;;;;;62.65;32.92;;;2.10;99.90;;;;;;4989810;28;20026;-82
2023/12/10 03:37:34;;;;;;;74.05;35.13;;;2.10;99.90;;;;;;4961937;28;20088;-83
2023/12/10 03:40:01;;;;;;;65.43;34.50;;;2.10;99.90;;;;;;4961830;28;20030;-83
2023/12/10 03:42:27;;;;;;;64.63;32.35;;;2.10;99.90;;;;;;4991393;28;20018;-82
2023/12/10 03:44:56;;;;;;;63.35;33.75;;;2.10;99.90;;;;;;4947825;28;20058;-83
2023/12/10 03:47:22;;;;;;;65.05;33.67;;;2.10;99.90;;;;;;4958420;28;20050;-82
2023/12/10 03:49:48;;;;;;;60.13;32.53;;;2.00;99.90;;;;;;4958363;28;20125;-82
2023/12/10 03:52:15;;;;;;;63.95;32.03;;;2.00;99.90;;;;;;4942558;28;20026;-82
2023/12/10 03:54:42;;;;;;;57.08;30.58;;;2.00;99.90;;;;;;4958251;28;20365;-82
2023/12/10 03:57:08;;;;;;;55.53;28.88;;;2.00;99.90;;;;;;4941619;28;20121;-82
2023/12/10 03:59:34;;;;;;;52.15;28.60;;;2.00;99.90;;;;;;4923675;29;20106;-83
2023/12/10 04:02:01;;;;;;;53.17;28.98;;;2.10;99.90;;;;;;4923319;29;20504;-82
2023/12/10 04:04:28;;;;;;;56.70;29.25;;;2.10;99.90;;;;;;4955941;28;20054;-82
2023/12/10 04:06:54;;;;;;;53.53;30.58;;;2.20;99.90;;;;;;4943013;28;20031;-83
2023/12/10 04:09:21;;;;;;;61.78;30.73;;;2.20;99.90;;;;;;4944263;28;20117;-83
2023/12/10 04:11:47;;;;;;;63.50;33.15;;;2.20;99.90;;;;;;4961333;28;20085;-82
2023/12/10 04:14:14;;;;;;;68.15;33.42;;;2.30;99.90;;;;;;4976021;28;20399;-83
2023/12/10 04:16:41;;;;;;;62.97;30.70;;;2.20;99.90;;;;;;4941889;28;20030;-83
2023/12/10 04:19:08;;;;;;;60.67;31.67;;;2.20;99.90;;;;;;4942102;28;20057;-83
2023/12/10 04:21:34;;;;;;;63.58;32.03;;;2.20;99.90;;;;;;4941955;28;20019;-83
2023/12/10 04:24:01;;;;;;;64.22;33.13;;;2.10;99.90;;;;;;4941848;28;20121;-82
2023/12/10 04:26:27;;;;;;;65.25;32.88;;;2.10;99.90;;;;;;4942043;28;20019;-83
2023/12/10 04:28:53;;;;;;;66.35;33.58;;;2.10;99.90;;;;;;4941490;28;20034;-83
2023/12/10 04:31:20;;;;;;;76.60;35.83;;;2.20;99.90;;;;;;4941875;28;20018;-83
2023/12/10 04:33:46;;;;;;;64.32;32.25;;;2.10;99.90;;;;;;4941797;28;20523;-83
2023/12/10 04:36:13;;;;;;;70.25;35.25;;;2.00;99.90;;;;;;4941782;28;20023;-83
2023/12/10 04:38:40;;;;;;;68.88;33.70;;;2.00;99.90;;;;;;4941485;28;20042;-83
2023/12/10 04:41:07;;;;;;;61.13;32.08;;;2.00;99.90;;;;;;4938437;29;20114;-83
2023/12/10 04:43:33;;;;;;;65.45;32.42;;;2.00;99.90;;;;;;4922590;29;20027;-83
2023/12/10 04:45:59;;;;;;;62.38;32.63;;;1.90;99.90;;;;;;4919460;29;20032;-82
2023/12/10 04:48:26;;;;;;;69.22;32.33;;;1.90;99.90;;;;;;4933690;28;20122;-82
2023/12/10 04:50:52;;;;;;;67.85;31.67;;;2.00;99.90;;;;;;4952144;29;20118;-83
2023/12/10 04:53:19;;;;;;;58.83;32.03;;;1.90;99.90;;;;;;4939657;28;20510;-82
2023/12/10 04:55:45;;;;;;;70.32;32.15;;;1.90;99.90;;;;;;4941489;28;20062;-83
2023/12/10 04:58:12;;;;;;;68.32;30.70;;;1.90;99.90;;;;;;4961725;28;20057;-83
2023/12/10 05:00:41;;;;;;;63.42;31.88;;;1.90;99.90;;;;;;4976578;28;20033;-83
2023/12/10 05:03:08;;;;;;;61.45;32.15;;;1.90;99.90;;;;;;4960750;28;20030;-83
2023/12/10 05:05:35;;;;;;;56.88;29.63;;;1.90;99.90;;;;;;4976731;28;20027;-83
2023/12/10 05:08:01;;;;;;;58.35;30.65;;;1.90;99.90;;;;;;4976388;28;20605;-83
2023/12/10 05:10:28;;;;;;;62.13;31.20;;;1.90;99.90;;;;;;4993704;28;20065;-83
2023/12/10 05:12:54;;;;;;;55.00;28.00;;;1.90;99.90;;;;;;4960755;28;20149;-83
2023/12/10 05:15:20;;;;;;;52.97;29.42;;;2.00;99.90;;;;;;4976412;28;20026;-82
2023/12/10 05:17:47;;;;;;;56.70;29.25;;;2.00;99.90;;;;;;4960162;28;20040;-83
2023/12/10 05:20:13;;;;;;;58.70;30.25;;;2.10;99.90;;;;;;4964957;28;20033;-84
2023/12/10 05:22:40;;;;;;;61.70;29.35;;;2.00;99.90;;;;;;4957376;28;20480;-82
2023/12/10 05:25:07;;;;;;;59.63;29.70;;;2.00;99.90;;;;;;4957199;28;20061;-82
2023/12/10 05:27:33;;;;;;;61.15;29.60;;;2.00;99.90;;;;;;4958724;28;20461;-82
2023/12/10 05:30:00;;;;;;;61.65;29.42;;;2.10;99.90;;;;;;4956745;28;20031;-83
2023/12/10 05:32:28;;;;;;;61.75;30.08;;;2.10;99.90;;;;;;4940963;28;20031;-83
2023/12/10 05:34:54;;;;;;;55.47;28.67;;;2.20;99.90;;;;;;4940929;28;20440;-82
2023/12/10 05:37:20;;;;;;;60.58;29.67;;;2.20;99.90;;;;;;4940854;28;20381;-82
2023/12/10 05:39:47;;;;;;;56.88;28.20;;;2.20;99.90;;;;;;4956737;28;20085;-83
2023/12/10 05:42:14;;;;;;;52.80;27.10;;;2.20;99.90;;;;;;4940944;28;20054;-82
2023/12/10 05:44:43;;;;;;;57.42;28.15;;;2.20;99.90;;;;;;4975103;28;20030;-82
2023/12/10 05:47:10;;;;;;;59.85;29.02;;;2.20;99.90;;;;;;4959994;28;20041;-83
2023/12/10 05:49:36;;;;;;;52.42;27.58;;;2.20;99.90;;;;;;4959787;28;20034;-82
2023/12/10 05:52:03;;;;;;;60.33;28.42;;;2.20;99.90;;;;;;4959913;28;20034;-82
2023/12/10 05:54:30;;;;;;;49.83;26.63;;;2.30;99.90;;;;;;4960066;28;20026;-82
2023/12/10 05:56:56;;;;;;;54.50;25.98;;;2.30;99.90;;;;;;4959926;28;20491;-82
2023/12/10 05:59:22;;;;;;;55.65;27.65;;;2.30;99.90;;;;;;4975430;28;20430;-83
2023/12/10 06:01:49;;;;;;;52.17;26.50;;;2.30;99.90;;;;;;4959694;28;20084;-82
2023/12/10 06:04:15;;;;;;;55.78;26.95;;;2.40;99.90;;;;;;4959893;28;20507;-82
2023/12/10 06:06:42;;;;;;;47.15;26.00;;;2.40;99.90;;;;;;4959943;28;20034;-82
2023/12/10 06:09:09;;;;;;;50.70;25.75;;;2.40;99.90;;;;;;4958120;28;20031;-83
2023/12/10 06:11:36;;;;;;;49.38;25.23;;;2.40;99.90;;;;;;4959854;28;20377;-82
2023/12/10 06:14:02;;;;;;;54.38;26.20;;;2.40;99.90;;;;;;4959863;28;20443;-82
2023/12/10 06:16:29;;;;;;;56.55;26.88;;;2.50;99.90;;;;;;4956274;28;20392;-83
2023/12/10 06:18:56;;;;;;;48.17;24.35;;;2.60;99.90;;;;;;4956766;28;20042;-83
2023/12/10 06:21:22;;;;;;;50.88;24.98;;;2.70;99.90;;;;;;4958200;28;20110;-82
2023/12/10 06:23:49;;;;;;;49.85;25.05;;;2.80;99.90;;;;;;4946446;28;20031;-82
2023/12/10 06:26:15;;;;;;;47.78;25.15;;;2.90;99.90;;;;;;4951984;28;20442;-83
2023/12/10 06:28:42;;;;;;;46.72;24.58;;;3.00;99.90;;;;;;4963549;28;20033;-83
2023/12/10 06:31:08;;;;;;;46.22;23.95;;;3.20;99.90;;;;;;4963503;28;20041;-85
2023/12/10 06:33:35;;;;;;;46.53;23.35;;;3.20;99.90;;;;;;4963364;28;20130;-87
2023/12/10 06:36:02;;;;;;;50.60;22.35;;;3.40;99.90;;;;;;4963129;28;20041;-82
2023/12/10 06:38:29;;;;;;;45.05;24.58;;;3.50;99.90;;;;;;4979431;28;20038;-83
2023/12/10 06:40:55;;;;;;;53.10;24.75;;;3.60;99.90;;;;;;4979265;28;20407;-85
2023/12/10 06:43:22;;;;;;;42.90;22.75;;;3.70;99.90;;;;;;4963618;28;20076;-83
2023/12/10 06:45:48;;;;;;;44.40;23.17;;;3.80;99.90;;;;;;4978877;28;20507;-83
2023/12/10 06:48:15;;;;;;;44.63;22.95;;;3.90;99.90;;;;;;4979127;28;20041;-83
2023/12/10 06:50:43;;;;;;;41.45;22.30;;;4.00;99.90;;;;;;4970201;28;20055;-88
2023/12/10 06:53:10;;;;;;;42.55;22.85;;;4.10;99.90;;;;;;4960470;28;20027;-86
2023/12/10 06:55:36;;;;;;;38.00;22.40;;;4.30;99.90;;;;;;4960166;28;20071;-86
2023/12/10 06:58:03;;;;;;;39.28;21.75;;;4.40;99.90;;;;;;4959738;28;20134;-85
2023/12/10 07:00:31;;;;;;;43.67;21.95;;;4.40;99.90;;;;;;4962405;28;20118;-85
2023/12/10 07:02:59;;;;;;;38.30;22.75;;;4.40;99.90;;;;;;4963213;28;20030;-84
2023/12/10 07:05:26;;;;;;;41.33;23.13;;;4.40;99.90;;;;;;4958400;28;20122;-85
2023/12/10 07:07:53;;;;;;;45.85;24.38;;;4.50;99.90;;;;;;4944145;28;20036;-84
2023/12/10 07:10:24;;;;;;;44.97;25.35;;;4.60;99.90;;;;;;4944396;28;20105;-85
2023/12/10 07:12:55;;;;;;;47.63;24.63;;;4.70;99.90;;;;;;4956236;28;20030;-85
2023/12/10 07:15:21;;;;;;;44.28;24.80;;;4.80;99.90;;;;;;4962860;28;20372;-87
2023/12/10 07:17:47;;;;;;;40.40;23.65;;;4.90;99.90;;;;;;4962700;28;20038;-86
2023/12/10 07:20:14;;;;;;;44.33;23.67;;;5.00;99.90;;;;;;4955663;28;20023;-85
2023/12/10 07:22:41;;;;;;;45.03;23.58;;;5.00;99.90;;;;;;4948272;29;20125;-86
2023/12/10 07:25:09;;;;;;;40.22;23.08;;;5.20;99.90;;;;;;4950119;28;20034;-86
2023/12/10 07:27:35;;;;;;;35.05;22.15;;;5.20;99.90;;;;;;4959627;28;20091;-85
2023/12/10 07:30:02;;;;;;;39.30;22.77;;;5.30;99.90;;;;;;4959560;28;20118;-85
2023/12/10 07:32:29;;;;;;;35.67;22.55;;;5.30;99.90;;;;;;4960862;28;20051;-85
2023/12/10 07:34:56;;;;;;;36.95;23.42;;;5.40;99.90;;;;;;4962393;28;20038;-85
2023/12/10 07:37:22;;;;;;;40.53;24.23;;;5.50;99.90;;;;;;4962311;28;20038;-85
2023/12/10 07:39:49;;;;;;;40.67;24.25;;;5.60;99.90;;;;;;4962412;28;20033;-85
2023/12/10 07:42:16;;;;;;;40.50;24.65;;;5.70;99.90;;;;;;4953913;28;20030;-85
2023/12/10 07:44:42;;;;;;;42.45;25.63;;;5.80;99.90;;;;;;4962493;28;20056;-85
2023/12/10 07:47:09;;;;;;;35.30;22.48;;;6.00;99.90;;;;;;4962634;28;20033;-85
2023/12/10 07:49:36;;;;;;;31.23;19.30;;;6.20;99.90;;;;;;4962321;28;20038;-85
2023/12/10 07:52:03;;;;;;;31.83;21.15;;;6.40;99.90;;;;;;4962313;28;20476;-85
2023/12/10 07:54:30;;;;;;;35.53;19.95;;;6.70;99.90;;;;;;4962350;28;20038;-85
2023/12/10 07:56:57;;;;;;;34.10;21.13;;;6.90;99.90;;;;;;4962125;28;20038;-84
2023/12/10 07:59:24;;;;;;;39.25;21.63;;;7.10;99.90;;;;;;4946750;28;20145;-85
2023/12/10 08:01:50;;;;;;;38.90;23.95;;;7.30;99.90;;;;;;4940957;28;20070;-85
2023/12/10 08:04:17;;;;;;;37.13;23.20;;;7.60;99.90;;;;;;4942443;28;20030;-85
2023/12/10 08:06:44;;;;;;;36.20;22.27;;;7.70;99.90;;;;;;4958662;28;20030;-85
2023/12/10 08:09:10;;;;;;;26.55;19.15;;;7.80;99.90;;;;;;4942947;28;20039;-86
2023/12/10 08:11:40;;;;;;;27.42;20.08;;;7.90;99.90;;;;;;4961851;28;20488;-84
2023/12/10 08:14:09;;;;;;;26.50;19.33;;;7.90;99.90;;;;;;4977634;28;20062;-85
2023/12/10 08:16:36;;;;;;;24.63;19.20;;;8.00;99.90;;;;;;4953994;29;20110;-84
2023/12/10 08:19:03;;;;;;;24.92;19.17;;;7.90;99.90;;;;;;4923564;29;20131;-85
2023/12/10 08:21:29;;;;;;;23.63;17.50;;;7.90;99.90;;;;;;4975887;28;20023;-80
2023/12/10 08:23:56;;;;;;;22.75;18.27;;;7.90;99.90;;;;;;4977560;28;20038;-83
2023/12/10 08:26:22;;;;;;;20.70;17.38;;;8.00;99.90;;;;;;4958389;28;20113;-82
2023/12/10 08:28:52;;;;;;;33.17;21.40;;;8.00;99.90;;;;;;4940253;28;20023;-82
2023/12/10 08:31:19;;;;;;;22.88;18.23;;;8.10;99.90;;;;;;4973831;28;20061;-82
2023/12/10 08:33:46;;;;;;;21.77;18.52;;;8.10;99.90;;;;;;4960797;28;20503;-83
2023/12/10 08:36:13;;;;;;;23.23;18.60;;;8.20;99.90;;;;;;4977207;28;20035;-86
2023/12/10 08:38:40;;;;;;;25.95;21.20;;;8.10;99.90;;;;;;4960909;28;20034;-83
2023/12/10 08:41:07;;;;;;;32.85;25.05;;;8.10;99.90;;;;;;4942684;29;20055;-82
2023/12/10 08:43:34;;;;;;;35.15;26.25;;;8.10;99.90;;;;;;4941359;28;20551;-84
2023/12/10 08:46:04;;;;;;;37.20;27.05;;;8.20;99.90;;;;;;4941453;28;20093;-82
2023/12/10 08:48:30;;;;;;;36.83;27.70;;;8.20;99.90;;;;;;4941632;28;20027;-81
2023/12/10 08:50:57;;;;;;;46.80;28.33;;;8.30;99.90;;;;;;4951643;28;20031;-81
2023/12/10 08:53:23;;;;;;;53.30;29.88;;;8.30;99.90;;;;;;4992300;28;20029;-81
2023/12/10 08:55:49;;;;;;;56.33;31.55;;;8.30;99.90;;;;;;4993890;28;20045;-82
2023/12/10 08:58:16;;;;;;;61.42;31.42;;;8.40;99.90;;;;;;5001884;28;20057;-82
2023/12/10 09:00:43;;;;;;;58.15;31.83;;;8.50;99.90;;;;;;4967884;28;20092;-81
2023/12/10 09:03:10;;;;;;;56.38;30.45;;;8.60;99.90;;;;;;4976635;28;20153;-85
2023/12/10 09:05:37;;;;;;;69.25;32.30;;;8.80;99.90;;;;;;4960384;28;20023;-79
2023/12/10 09:08:04;;;;;;;51.88;27.48;;;8.90;99.90;;;;;;4976530;28;20491;-87
2023/12/10 09:10:30;;;;;;;41.33;25.17;;;9.10;99.90;;;;;;4986693;28;20022;-83
2023/12/10 09:12:57;;;;;;;29.75;20.98;;;9.20;99.90;;;;;;5006843;28;20022;-82
2023/12/10 09:15:23;;;;;;;30.67;22.33;;;9.40;99.90;;;;;;4993617;28;20109;-83
2023/12/10 09:17:50;;;;;;;33.22;23.25;;;9.50;99.90;;;;;;4976336;28;20043;-82
2023/12/10 09:20:16;;;;;;;27.13;21.85;;;9.60;99.90;;;;;;5001476;28;20088;-82
2023/12/10 09:22:42;;;;;;;29.25;23.02;;;9.60;99.90;;;;;;5010128;28;20081;-81
2023/12/10 09:25:09;;;;;;;34.67;23.90;;;9.70;99.90;;;;;;4993548;28;20112;-82
2023/12/10 09:27:35;;;;;;;30.48;22.73;;;9.70;99.90;;;;;;4976082;28;20038;-81
2023/12/10 09:30:02;;;;;;;38.00;23.83;;;9.70;99.90;;;;;;4965829;28;20080;-82
2023/12/10 09:32:29;;;;;;;39.00;25.17;;;9.70;99.90;;;;;;4978501;28;20111;-82
2023/12/10 09:34:55;;;;;;;36.42;24.13;;;9.70;99.90;;;;;;4960012;28;20117;-82
2023/12/10 09:37:21;;;;;;;30.80;23.73;;;9.70;99.90;;;;;;4959864;28;20395;-81
2023/12/10 09:39:48;;;;;;;38.35;24.05;;;9.80;99.90;;;;;;4979731;28;20022;-82
2023/12/10 09:42:14;;;;;;;28.17;22.40;;;9.90;99.90;;;;;;5010312;28;20129;-82
2023/12/10 09:44:41;;;;;;;31.70;22.65;;;9.90;99.90;;;;;;4975487;28;20038;-82
2023/12/10 09:47:10;;;;;;;27.73;22.20;;;9.90;99.90;;;;;;4976301;28;20033;-82
2023/12/10 09:49:40;;;;;;;26.08;20.63;;;10.00;99.90;;;;;;4962166;28;20078;-82
2023/12/10 09:52:08;;;;;;;34.08;24.20;;;10.00;99.90;;;;;;4988380;28;20376;-82
2023/12/10 09:54:37;;;;;;;35.15;23.05;;;10.10;99.90;;;;;;4959833;28;20031;-82
2023/12/10 09:57:03;;;;;;;38.15;21.52;;;10.20;99.90;;;;;;4965112;28;20064;-82
2023/12/10 09:59:30;;;;;;;39.35;23.45;;;10.20;99.90;;;;;;4962919;28;20057;-82
2023/12/10 10:01:57;;;;;;;35.30;24.13;;;10.20;99.90;;;;;;4966357;28;20446;-82
2023/12/10 10:04:24;;;;;;;37.38;23.60;;;10.20;99.90;;;;;;4939610;29;20504;-82
2023/12/10 10:06:50;;;;;;;37.80;22.45;;;10.30;99.90;;;;;;4956872;29;20110;-82
2023/12/10 10:09:16;;;;;;;33.97;21.80;;;10.40;99.90;;;;;;4940715;29;20031;-82
2023/12/10 10:11:50;;;;;;;30.08;20.88;;;10.50;99.90;;;;;;4974678;28;20031;-83
2023/12/10 10:14:17;;;;;;;24.08;18.38;;;10.60;99.90;;;;;;4960342;28;20035;-82
2023/12/10 10:16:48;;;;;;;21.88;18.90;;;10.70;99.90;;;;;;4960092;28;20038;-81
2023/12/10 10:19:15;;;;;;;28.52;20.48;;;10.80;99.90;;;;;;4959942;28;20125;-81
2023/12/10 10:21:42;;;;;;;35.15;23.65;;;10.80;99.90;;;;;;4992301;28;20392;-82
2023/12/10 10:24:09;;;;;;;38.83;25.23;;;10.90;99.90;;;;;;4977213;28;20023;-82
2023/12/10 10:26:37;;;;;;;25.67;20.70;;;10.90;99.90;;;;;;4949252;29;20481;-83
2023/12/10 10:29:08;;;;;;;31.33;22.42;;;10.90;99.90;;;;;;4940645;29;20031;-82
2023/12/10 10:31:34;;;;;;;20.13;18.13;;;10.90;99.90;;;;;;4957689;28;20023;-82
2023/12/10 10:34:05;;;;;;;19.83;17.73;;;10.90;99.90;;;;;;4959700;28;20110;-83
2023/12/10 10:36:32;;;;;;;18.80;17.00;;;11.00;99.90;;;;;;4960047;28;20027;-81
2023/12/10 10:38:59;;;;;;;17.52;15.95;;;11.00;99.90;;;;;;4943731;28;20039;-81
2023/12/10 10:41:26;;;;;;;18.27;16.48;;;11.10;99.90;;;;;;4972218;28;20023;-82
2023/12/10 10:43:54;;;;;;;20.13;18.23;;;11.40;99.90;;;;;;4943538;28;20031;-82
2023/12/10 10:46:21;;;;;;;19.92;18.33;;;11.50;99.90;;;;;;4958976;28;20035;-81
2023/12/10 10:48:51;;;;;;;20.27;18.30;;;11.50;99.90;;;;;;4959350;28;20114;-81
2023/12/10 10:51:26;;;;;;;20.48;18.50;;;11.50;99.90;;;;;;4978871;28;20026;-81
2023/12/10 10:53:58;;;;;;;21.80;19.52;;;11.50;99.90;;;;;;4962663;28;20031;-83
2023/12/10 10:56:25;;;;;;;21.77;19.58;;;11.50;99.90;;;;;;4942412;29;20036;-85
2023/12/10 10:58:52;;;;;;;24.65;20.35;;;11.50;99.90;;;;;;4920971;29;20170;-83
2023/12/10 11:01:36;;;;;;;20.95;18.90;;;11.60;99.90;;;;;;4950871;28;20031;-83
2023/12/10 11:04:03;;;;;;;20.75;18.05;;;11.60;99.90;;;;;;4984950;28;20118;-82
2023/12/10 11:06:30;;;;;;;20.02;17.65;;;11.60;99.90;;;;;;4959132;28;20085;-83
2023/12/10 11:09:00;;;;;;;18.02;16.20;;;11.60;99.90;;;;;;4976457;28;20093;-83
2023/12/10 11:11:26;;;;;;;17.67;15.90;;;11.60;99.90;;;;;;4974421;28;20034;-83
2023/12/10 11:13:54;;;;;;;16.42;14.77;;;11.60;99.90;;;;;;4960061;28;20031;-83
2023/12/10 11:16:23;;;;;;;16.27;15.00;;;11.60;99.90;;;;;;4958844;28;20066;-82
2023/12/10 11:18:56;;;;;;;16.80;14.95;;;11.70;99.90;;;;;;4958850;28;20126;-82
2023/12/10 11:21:23;;;;;;;17.02;15.52;;;11.70;99.90;;;;;;4973802;28;20026;-82
2023/12/10 11:23:53;;;;;;;16.77;15.40;;;11.80;99.90;;;;;;4942161;28;20089;-83
2023/12/10 11:26:19;;;;;;;16.70;15.43;;;11.70;99.90;;;;;;4958916;28;20034;-81
2023/12/10 11:28:46;;;;;;;18.45;16.85;;;11.80;99.90;;;;;;4958887;28;20027;-83
2023/12/10 11:31:12;;;;;;;17.98;16.52;;;11.80;99.90;;;;;;4974668;28;20106;-83
2023/12/10 11:33:40;;;;;;;17.95;16.42;;;11.70;99.90;;;;;;4958069;28;20031;-82
2023/12/10 11:36:10;;;;;;;19.52;17.73;;;11.80;99.90;;;;;;4954650;29;20035;-83
2023/12/10 11:38:36;;;;;;;18.13;16.45;;;11.70;99.90;;;;;;4971289;28;20046;-82
2023/12/10 11:41:03;;;;;;;17.52;15.88;;;11.70;99.90;;;;;;4974386;28;20023;-83
2023/12/10 11:43:30;;;;;;;18.33;16.48;;;11.60;99.90;;;;;;4942453;28;20022;-82
2023/12/10 11:45:56;;;;;;;17.85;16.30;;;11.50;99.90;;;;;;4958356;28;20369;-82
2023/12/10 11:48:23;;;;;;;19.63;17.63;;;11.50;99.90;;;;;;5057591;23;20145;-87
2023/12/10 11:50:49;;;;;;;22.75;18.02;;;11.40;99.90;;;;;;4974720;28;20839;-88
2023/12/10 11:53:18;;;;;;;22.88;17.17;;;11.40;99.90;;;;;;4956098;28;20054;-85
2023/12/10 11:55:45;;;;;;;24.45;17.90;;;11.30;99.90;;;;;;4959554;28;20077;-84
2023/12/10 11:58:12;;;;;;;21.30;16.00;;;11.30;99.90;;;;;;4981226;28;20026;-84
2023/12/10 12:00:58;;;;;;;20.50;15.75;;;11.20;99.90;;;;;;4978197;28;20029;-86
2023/12/10 12:03:25;;;;;;;18.63;15.73;;;11.20;99.90;;;;;;4960031;28;20026;-88
2023/12/10 12:05:54;;;;;;;20.77;16.00;;;11.20;99.90;;;;;;4973589;28;20423;-87
2023/12/10 12:08:26;;;;;;;18.15;15.77;;;11.20;99.90;;;;;;4978889;28;20615;-91
2023/12/10 12:10:53;;;;;;;20.65;15.70;;;11.20;99.90;;;;;;4978814;28;20030;-85
2023/12/10 12:13:20;;;;;;;16.63;14.10;;;11.20;99.90;;;;;;4962924;28;20030;-88
2023/12/10 12:15:56;;;;;;;17.00;13.35;;;11.20;99.90;;;;;;4978542;28;20081;-85
2023/12/10 12:18:26;;;;;;;14.73;13.27;;;11.30;99.90;;;;;;4977799;28;20038;-85
2023/12/10 12:20:52;;;;;;;14.10;11.10;;;11.30;99.90;;;;;;4978480;28;20023;-88
2023/12/10 12:23:18;;;;;;;13.73;12.00;;;11.40;99.90;;;;;;4977859;28;20104;-84
2023/12/10 12:25:46;;;;;;;17.27;13.45;;;11.50;99.90;;;;;;4962474;28;20116;-85
2023/12/10 12:28:13;;;;;;;12.15;10.90;;;11.60;99.90;;;;;;4962455;28;20026;-86
2023/12/10 12:30:40;;;;;;;16.50;12.10;;;11.60;99.90;;;;;;4978331;28;20045;-86
2023/12/10 12:33:07;;;;;;;16.13;12.02;;;11.60;99.90;;;;;;4962743;28;20026;-85
2023/12/10 12:35:34;;;;;;;15.57;12.30;;;11.60;99.90;;;;;;4962202;28;20033;-87